1990 RAE (1990076S09176)


On this page: IBTrACS data - Map and Plots - Positions - Intensities - Original source data

Summary

Start Mar 16
End Mar 21
Basin SP
LMI 30 kt
Source wellington
In WMO? Yes
Related storms 1990076S12165
Previous storm 1990 RAE7 (SP)
Previous in basin 1990 RAE7 (SP)
Concurrent storms 1990 GREGOARA (SI)
1990 IVOR (SP)
1990 ALEX (SI)
1990 RAE (SP)
1990 RAE (SP)
Next in basin 1990 RAE (SP)
Next storm 1990 RAE (SP)

top of page IBTrACS Data: File Access

top of page HURSAT Data: File Access

Image of storm

top of page Plots:

Map of storm track will not appear if FTP is down
Time series of cyclone Maximum Sustained Wind will not appear if FTP is down
Time series of cyclone Minimum Central Pressure will not appear if FTP is down

top of page Track Data:Position

wellington
Date Lat Lon
1990-03-16 12:00:00 -9.3 176.3
1990-03-16 18:00:00 -9.6 176.7
1990-03-17 00:00:00 -10.0 177.0
1990-03-17 06:00:00 -10.5 177.3
1990-03-17 12:00:00 -11.0 177.5
1990-03-17 18:00:00 -11.4 177.7
1990-03-18 00:00:00 -12.0 177.9
1990-03-18 06:00:00 -12.9 178.0
1990-03-18 12:00:00 -13.8 178.0
1990-03-18 18:00:00 -14.7 177.9
1990-03-19 00:00:00 -15.4 177.8
1990-03-19 06:00:00 -15.9 177.7
1990-03-19 12:00:00 -16.2 177.4
1990-03-19 18:00:00 -16.5 177.0
1990-03-20 00:00:00 -16.8 176.5
1990-03-20 06:00:00 -17.1 176.1
1990-03-20 12:00:00 -17.3 175.5
1990-03-20 18:00:00 -17.5 174.7
1990-03-21 00:00:00 -17.7 173.9

top of pageTrack Data:Intensity

wellington
Date Wind Pres
1990-03-16 12:00:00 30. 997.
1990-03-16 18:00:00 30. 997.
1990-03-17 00:00:00 30. 997.
1990-03-17 06:00:00 30. 997.
1990-03-17 12:00:00 30. 997.
1990-03-17 18:00:00 30. 997.
1990-03-18 00:00:00 30. 997.
1990-03-18 06:00:00 30. 997.
1990-03-18 12:00:00 30. 997.
1990-03-18 18:00:00 30. 997.
1990-03-19 00:00:00 30. 997.
1990-03-19 06:00:00 30. 997.
1990-03-19 12:00:00 30. 997.
1990-03-19 18:00:00 30. 997.
1990-03-20 00:00:00 30. 997.
1990-03-20 06:00:00 30. 997.
1990-03-20 12:00:00 30. 997.
1990-03-20 18:00:00 30. 997.
1990-03-21 00:00:00 30. 997.

top of page Links to source data

Source Source file Format
wellington TC_BT_1967_2006.csv:Line=3648:RAE Text table